createdAt,value
2023-05-05T00:00:49.715Z,6.07
2023-05-05T00:04:51.410Z,5.28
2023-05-05T00:08:53.115Z,6.13
2023-05-05T00:12:55.004Z,5.88
2023-05-05T00:16:57.010Z,6.53
2023-05-05T00:20:58.726Z,9.73
2023-05-05T00:25:02.460Z,4.68
2023-05-05T00:29:04.154Z,5.50
2023-05-05T00:33:06.025Z,5.10
2023-05-05T00:37:07.707Z,6.68
2023-05-05T00:41:09.638Z,6.10
2023-05-05T00:45:13.480Z,6.50
2023-05-05T00:49:16.553Z,7.90
2023-05-05T00:53:18.511Z,7.35
2023-05-05T00:57:20.771Z,7.53
2023-05-05T01:01:24.253Z,5.70
2023-05-05T01:05:27.943Z,7.53
2023-05-05T01:09:32.526Z,6.15
2023-05-05T01:13:53.957Z,5.57
2023-05-05T01:18:04.125Z,7.70
2023-05-05T01:22:09.014Z,7.13
2023-05-05T01:26:22.245Z,6.75
2023-05-05T01:30:53.443Z,9.13
2023-05-05T01:35:33.744Z,9.52
2023-05-05T01:39:37.931Z,11.40
2023-05-05T01:43:41.339Z,5.07
2023-05-05T01:47:45.105Z,5.10
2023-05-05T01:51:48.076Z,5.18
2023-05-05T01:55:50.903Z,5.45
2023-05-05T02:03:57.361Z,5.35
2023-05-05T02:08:00.505Z,7.50
2023-05-05T02:12:05.364Z,7.50
2023-05-05T02:16:09.435Z,5.55
2023-05-05T02:20:12.804Z,6.60
2023-05-05T02:24:14.582Z,8.85
2023-05-05T02:28:28.628Z,8.93
2023-05-05T02:32:48.673Z,5.03
2023-05-05T02:36:54.458Z,8.82
2023-05-05T02:40:58.508Z,5.72
2023-05-05T02:45:04.600Z,7.15
2023-05-05T02:49:07.510Z,6.18
2023-05-05T02:53:10.822Z,5.90
2023-05-05T02:57:18.014Z,5.90
2023-05-05T03:01:57.461Z,9.50
2023-05-05T03:06:18.298Z,7.55
2023-05-05T03:10:31.223Z,7.43
2023-05-05T03:14:41.714Z,8.05
2023-05-05T03:18:48.516Z,8.15
2023-05-05T03:22:51.074Z,8.80
2023-05-05T03:26:53.939Z,8.45
2023-05-05T03:30:59.462Z,11.38
2023-05-05T03:35:01.469Z,8.68
2023-05-05T03:39:08.409Z,9.05
2023-05-05T03:43:10.068Z,10.47
2023-05-05T03:47:12.882Z,9.55
2023-05-05T03:51:15.711Z,8.20
2023-05-05T03:55:17.717Z,9.27
2023-05-05T03:59:19.552Z,8.65
2023-05-05T04:03:21.570Z,8.75
2023-05-05T04:07:23.963Z,13.95
2023-05-05T04:11:26.342Z,11.95
2023-05-05T04:15:30.331Z,12.40
2023-05-05T04:19:32.528Z,8.37
2023-05-05T04:23:36.843Z,12.75
2023-05-05T04:27:39.080Z,12.02
2023-05-05T04:31:41.877Z,8.35
2023-05-05T04:35:43.673Z,5.60
2023-05-05T04:39:45.813Z,9.15
2023-05-05T04:43:47.676Z,9.33
2023-05-05T04:47:50.439Z,8.65
2023-05-05T04:51:52.194Z,9.63
2023-05-05T04:55:54.038Z,8.38
2023-05-05T04:59:55.898Z,8.80
2023-05-05T05:03:57.784Z,9.65
2023-05-05T05:07:59.521Z,9.80
2023-05-05T05:12:04.407Z,9.65
2023-05-05T05:16:06.706Z,9.80
2023-05-05T05:20:09.195Z,8.32
2023-05-05T05:28:13.864Z,13.40
2023-05-05T05:32:21.781Z,13.10
2023-05-05T05:36:24.136Z,10.60
2023-05-05T05:40:28.128Z,9.95
2023-05-05T05:44:30.416Z,10.13
2023-05-05T05:48:32.176Z,10.13
2023-05-05T05:52:36.364Z,8.82
2023-05-05T05:56:40.249Z,8.15
2023-05-05T06:00:43.413Z,10.07
2023-05-05T06:04:50.419Z,10.85
2023-05-05T06:08:52.265Z,8.35
2023-05-05T06:12:54.431Z,8.83
2023-05-05T06:16:56.393Z,10.27
2023-05-05T06:21:01.208Z,13.90
2023-05-05T06:25:04.299Z,12.55
2023-05-05T06:29:06.122Z,11.93
2023-05-05T06:33:07.894Z,11.35
2023-05-05T06:37:09.566Z,11.60
2023-05-05T06:41:13.455Z,10.95
2023-05-05T06:45:16.993Z,9.88
2023-05-05T06:49:23.477Z,10.00
2023-05-05T06:53:25.283Z,9.23
2023-05-05T06:57:27.043Z,14.67
2023-05-05T07:01:28.933Z,9.97
2023-05-05T07:05:30.745Z,21.10
2023-05-05T07:09:32.466Z,9.48
2023-05-05T07:13:34.115Z,8.18
2023-05-05T07:17:35.955Z,18.48
2023-05-05T07:21:37.668Z,7.70
2023-05-05T07:25:39.427Z,9.48
2023-05-05T07:29:41.224Z,7.53
2023-05-05T07:33:43.105Z,8.23
2023-05-05T07:37:45.715Z,6.80
2023-05-05T07:45:49.116Z,7.05
2023-05-05T07:49:51.183Z,6.03
2023-05-05T07:53:52.953Z,7.25
2023-05-05T07:57:54.665Z,7.43
2023-05-05T08:01:56.361Z,8.88
2023-05-05T08:06:08.303Z,8.60
2023-05-05T08:10:15.425Z,7.32
2023-05-05T08:14:17.232Z,8.30
2023-05-05T08:18:19.498Z,11.55
2023-05-05T08:22:22.229Z,7.90
2023-05-05T08:26:24.172Z,7.82
2023-05-05T08:30:25.842Z,8.13
2023-05-05T08:34:27.576Z,6.60
2023-05-05T08:38:30.843Z,8.73
2023-05-05T08:42:38.394Z,7.57
2023-05-05T08:46:41.707Z,7.95
2023-05-05T08:50:49.447Z,7.28
2023-05-05T08:55:10.595Z,8.65
2023-05-05T08:59:13.470Z,9.63
2023-05-05T09:03:16.454Z,7.90
2023-05-05T09:07:18.832Z,9.77
2023-05-05T09:11:21.718Z,9.43
2023-05-05T09:15:23.429Z,9.45
2023-05-05T09:19:25.061Z,10.07
2023-05-05T09:23:29.749Z,9.15
2023-05-05T09:27:36.143Z,6.65
2023-05-05T09:31:38.048Z,6.78
2023-05-05T09:35:52.627Z,8.15
2023-05-05T09:39:55.658Z,9.10
2023-05-05T09:43:57.415Z,5.07
2023-05-05T09:48:01.012Z,8.05
2023-05-05T09:52:15.723Z,7.32
2023-05-05T09:56:18.575Z,5.00
2023-05-05T10:00:22.475Z,5.03
2023-05-05T10:04:29.741Z,4.65
2023-05-05T10:08:35.453Z,5.20
2023-05-05T10:12:41.295Z,4.35
2023-05-05T10:21:01.020Z,8.52
2023-05-05T10:25:04.147Z,5.70
2023-05-05T10:29:11.452Z,5.53
2023-05-05T10:33:30.154Z,4.57
2023-05-05T10:37:34.055Z,4.68
2023-05-05T10:45:38.288Z,3.28
2023-05-05T10:49:47.874Z,6.68
2023-05-05T10:54:03.794Z,3.90
2023-05-05T10:58:05.676Z,4.13
2023-05-05T11:02:27.151Z,4.53
2023-05-05T11:06:29.660Z,5.05
2023-05-05T11:10:44.546Z,4.43
2023-05-05T11:14:46.270Z,4.53
2023-05-05T11:18:47.960Z,2.53
2023-05-05T11:23:06.471Z,3.97
2023-05-05T11:27:08.291Z,4.22
2023-05-05T11:31:16.662Z,2.45
2023-05-05T11:35:18.953Z,4.38
2023-05-05T11:43:28.122Z,2.20
2023-05-05T11:47:31.016Z,2.60
2023-05-05T11:51:33.540Z,3.03
2023-05-05T11:55:35.329Z,3.20
2023-05-05T12:00:00.651Z,1.50
2023-05-05T12:04:02.652Z,2.67
2023-05-05T12:08:04.732Z,3.13
2023-05-05T12:16:13.004Z,1.05
2023-05-05T12:20:14.872Z,2.63
2023-05-05T12:24:18.179Z,3.47
2023-05-05T12:32:26.477Z,1.20
2023-05-05T12:36:30.394Z,1.27
2023-05-05T12:40:46.941Z,1.55
2023-05-05T12:44:50.310Z,4.90
2023-05-05T12:49:04.958Z,2.58
2023-05-05T12:53:06.735Z,1.73
2023-05-05T12:57:11.767Z,1.40
2023-05-05T13:01:13.479Z,2.50
2023-05-05T13:09:24.410Z,2.78
2023-05-05T13:13:26.126Z,4.05
2023-05-05T13:17:29.559Z,2.33
2023-05-05T13:21:32.085Z,2.30
2023-05-05T13:25:33.756Z,2.42
2023-05-05T13:29:35.587Z,1.90
2023-05-05T13:33:37.229Z,3.17
2023-05-05T13:37:40.504Z,6.78
2023-05-05T13:41:44.940Z,2.72
2023-05-05T13:45:46.711Z,3.55
2023-05-05T13:49:49.051Z,1.33
2023-05-05T13:53:50.994Z,2.85
2023-05-05T13:57:52.875Z,3.72
2023-05-05T14:01:54.559Z,1.33
2023-05-05T14:09:57.893Z,2.83
2023-05-05T14:18:01.231Z,1.92
2023-05-05T14:22:02.991Z,2.33
2023-05-05T14:26:04.840Z,3.58
2023-05-05T14:34:08.416Z,2.72
2023-05-05T14:38:10.144Z,3.90
2023-05-05T14:42:11.835Z,1.67
2023-05-05T14:46:13.847Z,1.08
2023-05-05T14:50:15.530Z,1.80
2023-05-05T14:54:27.465Z,3.53
2023-05-05T14:58:29.909Z,3.30
2023-05-05T15:02:31.611Z,2.08
2023-05-05T15:06:33.297Z,1.13
2023-05-05T15:10:35.056Z,3.72
2023-05-05T15:14:36.876Z,7.97
2023-05-05T15:18:38.612Z,4.63
2023-05-05T15:22:43.512Z,1.88
2023-05-05T15:26:45.177Z,1.90
2023-05-05T15:30:46.795Z,2.53
2023-05-05T15:57:19.124Z,1.48
2023-05-05T16:01:24.243Z,2.38
2023-05-05T16:05:25.984Z,2.20
2023-05-05T16:09:27.725Z,2.43
2023-05-05T16:13:29.506Z,2.77
2023-05-05T16:17:31.272Z,3.90
2023-05-05T16:21:33.527Z,4.43
2023-05-05T16:25:35.292Z,2.83
2023-05-05T16:29:37.091Z,2.03
2023-05-05T16:33:41.140Z,3.60
2023-05-05T16:37:45.495Z,2.28
2023-05-05T16:41:47.167Z,2.17
2023-05-05T16:45:49.095Z,2.27
2023-05-05T16:49:52.650Z,2.93
2023-05-05T16:53:54.507Z,1.77
2023-05-05T16:57:56.248Z,3.10
2023-05-05T17:01:58.142Z,1.48
2023-05-05T17:06:00.367Z,1.88
2023-05-05T17:10:02.324Z,4.47
2023-05-05T17:14:04.053Z,4.60
2023-05-05T17:18:06.988Z,5.10
2023-05-05T17:22:11.207Z,6.05
2023-05-05T17:26:13.470Z,2.22
2023-05-05T17:30:17.038Z,3.95
2023-05-05T17:34:18.753Z,2.63
2023-05-05T17:38:21.666Z,3.50
2023-05-05T17:42:23.448Z,1.67
2023-05-05T17:46:26.513Z,2.30
2023-05-05T17:50:29.990Z,3.65
2023-05-05T17:54:34.143Z,1.85
2023-05-05T17:58:38.185Z,4.07
2023-05-05T18:02:41.298Z,4.60
2023-05-05T18:06:49.915Z,4.38
2023-05-05T18:11:04.693Z,8.07
2023-05-05T18:15:07.830Z,2.90
2023-05-05T18:19:14.085Z,6.03
2023-05-05T18:23:20.802Z,3.17
2023-05-05T18:27:28.346Z,2.60
2023-05-05T18:31:31.321Z,3.28
2023-05-05T18:35:35.373Z,3.85
2023-05-05T18:39:38.243Z,2.15
2023-05-05T18:43:52.121Z,4.03
2023-05-05T18:48:11.824Z,3.83
2023-05-05T18:52:16.820Z,5.43
2023-05-05T18:56:19.644Z,4.00
2023-05-05T19:00:21.500Z,4.30
2023-05-05T19:04:31.688Z,4.22
2023-05-05T19:08:39.022Z,5.22
2023-05-05T19:12:40.891Z,5.03
2023-05-05T19:16:44.345Z,3.77
2023-05-05T19:25:11.166Z,5.25
2023-05-05T19:29:13.112Z,4.68
2023-05-05T19:33:17.903Z,4.93
2023-05-05T19:37:19.780Z,4.47
2023-05-05T19:41:21.656Z,5.23
2023-05-05T19:45:26.544Z,4.70
2023-05-05T19:49:28.521Z,5.82
2023-05-05T19:53:30.421Z,3.63
2023-05-05T19:57:32.102Z,3.27
2023-05-05T20:01:37.056Z,4.10
2023-05-05T20:05:38.908Z,6.00
2023-05-05T20:09:42.122Z,5.77
2023-05-05T20:13:44.113Z,5.85
2023-05-05T20:17:47.154Z,5.77
2023-05-05T20:21:51.037Z,6.60
2023-05-05T20:25:53.497Z,5.67
2023-05-05T20:29:55.354Z,4.38
2023-05-05T20:33:57.165Z,6.97
2023-05-05T20:42:02.830Z,5.78
2023-05-05T20:46:04.626Z,6.20
2023-05-05T20:50:07.864Z,9.85
2023-05-05T20:54:10.353Z,4.13
2023-05-05T20:58:12.090Z,5.78
2023-05-05T21:02:13.844Z,4.32
2023-05-05T21:06:16.562Z,7.35
2023-05-05T21:10:18.229Z,5.38
2023-05-05T21:14:20.084Z,6.50
2023-05-05T21:18:21.986Z,7.70
2023-05-05T21:22:26.594Z,4.80
2023-05-05T21:26:28.451Z,4.60
2023-05-05T21:30:30.357Z,6.18
2023-05-05T21:34:32.164Z,7.40
2023-05-05T21:38:33.945Z,6.90
2023-05-05T21:42:35.705Z,7.80
2023-05-05T21:46:37.470Z,7.55
2023-05-05T21:50:39.641Z,13.00
2023-05-05T21:54:41.373Z,10.50
2023-05-05T21:58:43.114Z,8.38
2023-05-05T22:02:45.169Z,11.90
2023-05-05T22:06:48.575Z,7.05
2023-05-05T22:10:52.352Z,7.95
2023-05-05T22:14:54.049Z,9.17
2023-05-05T22:18:55.714Z,8.70
2023-05-05T22:22:58.254Z,7.93
2023-05-05T22:27:00.030Z,6.90
2023-05-05T22:31:02.071Z,10.40
2023-05-05T22:35:04.834Z,8.03
2023-05-05T22:39:06.657Z,10.27
2023-05-05T22:43:09.577Z,8.48
2023-05-05T22:47:11.656Z,8.63
2023-05-05T22:51:13.997Z,7.72
2023-05-05T22:55:16.221Z,8.70
2023-05-05T22:59:17.865Z,10.30
2023-05-05T23:03:19.599Z,11.73
2023-05-05T23:07:21.239Z,8.70
2023-05-05T23:11:23.028Z,8.10
2023-05-05T23:15:25.152Z,9.55
2023-05-05T23:19:29.099Z,9.90
2023-05-05T23:23:31.209Z,12.70
2023-05-05T23:27:32.868Z,10.67
2023-05-05T23:31:34.488Z,8.65
2023-05-05T23:35:39.600Z,8.50
2023-05-05T23:39:41.778Z,8.00
2023-05-05T23:43:43.668Z,8.20
2023-05-05T23:47:45.405Z,10.48
2023-05-05T23:51:47.152Z,8.75
2023-05-05T23:55:48.781Z,9.18
2023-05-05T23:59:50.527Z,8.93
